createdAt,value
2022-12-04T07:38:50.521Z,21.10
2022-12-04T07:41:52.371Z,22.33
2022-12-04T07:44:54.209Z,23.98
2022-12-04T07:47:55.990Z,24.25
2022-12-04T07:51:15.704Z,22.10
2022-12-04T07:54:17.567Z,21.17
2022-12-04T07:57:19.599Z,20.70
2022-12-04T08:00:21.770Z,22.42
2022-12-04T08:03:23.698Z,20.17
2022-12-04T08:06:27.783Z,18.40
2022-12-04T08:09:29.650Z,17.83
2022-12-04T08:12:33.225Z,16.77
2022-12-04T08:15:35.465Z,18.92
2022-12-04T08:18:38.060Z,21.05
2022-12-04T08:21:39.960Z,19.65
2022-12-04T08:24:42.820Z,19.50
2022-12-04T08:27:47.717Z,18.48
2022-12-04T08:30:49.770Z,16.45
2022-12-04T08:33:54.222Z,16.33
2022-12-04T08:36:56.089Z,16.77
2022-12-04T08:39:58.918Z,15.93
2022-12-04T08:43:00.923Z,17.52
2022-12-04T08:46:05.288Z,18.13
2022-12-04T08:49:07.499Z,17.80
2022-12-04T08:52:09.428Z,18.25
2022-12-04T08:55:11.313Z,17.47
2022-12-04T08:58:13.439Z,17.88
2022-12-04T09:01:16.105Z,19.75
2022-12-04T09:04:18.913Z,21.85
2022-12-04T09:07:21.001Z,19.75
2022-12-04T09:10:23.072Z,21.77
2022-12-04T09:13:25.026Z,20.00
2022-12-04T09:16:27.395Z,30.35
2022-12-04T09:19:31.223Z,19.33
2022-12-04T09:23:02.103Z,18.85
2022-12-04T09:25:59.496Z,18.63
2022-12-04T09:29:03.190Z,22.08
2022-12-04T09:32:05.473Z,21.08
2022-12-04T09:35:08.243Z,22.25
2022-12-04T18:53:07.269Z,42.00
2022-12-04T18:57:03.872Z,40.88
2022-12-04T19:01:00.448Z,25.85
2022-12-04T19:04:56.972Z,26.52
2022-12-04T19:08:53.508Z,28.20
2022-12-04T19:12:51.220Z,30.03
2022-12-04T19:16:53.993Z,31.95
2022-12-04T19:20:50.553Z,36.63
2022-12-04T19:24:47.191Z,31.92
2022-12-04T19:28:43.743Z,29.13
2022-12-04T19:32:40.286Z,29.77
2022-12-04T19:36:41.273Z,26.17
2022-12-04T19:40:37.869Z,32.60
2022-12-04T19:44:48.483Z,31.80
2022-12-04T19:48:49.780Z,23.67
2022-12-04T19:52:46.315Z,24.10
2022-12-04T19:56:45.837Z,20.90
2022-12-04T20:00:42.402Z,25.30
2022-12-04T20:04:39.044Z,25.20
2022-12-04T20:08:35.633Z,23.83
2022-12-04T20:12:32.192Z,27.07
2022-12-04T20:16:28.774Z,25.70
2022-12-04T20:20:25.548Z,25.00
2022-12-04T20:24:22.103Z,24.58
2022-12-04T20:28:18.636Z,23.52
2022-12-04T20:32:15.165Z,27.00
2022-12-04T20:36:12.251Z,30.25
2022-12-04T20:40:23.868Z,26.70
2022-12-04T20:44:20.809Z,29.63
2022-12-04T20:48:17.367Z,36.28
2022-12-04T20:52:17.036Z,30.57
2022-12-04T20:56:13.645Z,33.30
2022-12-04T21:00:10.202Z,31.98
2022-12-04T21:04:06.750Z,31.48
2022-12-04T21:08:03.311Z,29.40
2022-12-04T21:12:25.535Z,28.30
2022-12-04T21:16:22.849Z,27.08
2022-12-04T21:20:19.399Z,26.60
2022-12-04T21:24:15.960Z,27.75
2022-12-04T21:28:12.636Z,21.70
2022-12-04T21:32:09.184Z,17.23
2022-12-04T21:36:05.755Z,17.05
2022-12-04T21:40:02.460Z,21.42
2022-12-04T21:43:59.331Z,18.92
2022-12-04T21:47:55.903Z,16.98
2022-12-04T21:51:59.762Z,16.13
2022-12-04T21:55:57.249Z,15.82
2022-12-04T21:59:54.007Z,17.90
2022-12-04T22:03:53.372Z,20.20
2022-12-04T22:07:50.086Z,16.37
2022-12-04T22:11:46.705Z,17.00
2022-12-04T22:15:44.755Z,19.13
2022-12-04T22:19:41.350Z,17.95
2022-12-04T22:23:38.020Z,18.30
2022-12-04T22:27:34.548Z,19.05
2022-12-04T22:31:34.015Z,17.43
2022-12-04T22:35:30.829Z,17.90
2022-12-04T22:39:27.398Z,17.38
2022-12-04T22:43:24.099Z,17.92
2022-12-04T22:47:20.615Z,16.37
2022-12-04T22:51:19.711Z,18.80
2022-12-04T22:55:16.241Z,16.70
2022-12-04T22:59:12.818Z,17.88
2022-12-04T23:03:09.538Z,16.67
2022-12-04T23:07:06.145Z,15.87
2022-12-04T23:11:02.665Z,15.50
2022-12-04T23:14:59.168Z,15.18
2022-12-04T23:18:56.136Z,16.35
2022-12-04T23:22:54.805Z,16.02
2022-12-04T23:26:51.371Z,15.50
2022-12-04T23:30:48.134Z,15.20
2022-12-04T23:34:44.744Z,15.00
2022-12-04T23:38:41.295Z,12.35
2022-12-04T23:42:37.826Z,16.40
2022-12-04T23:46:34.462Z,16.77
2022-12-04T23:50:31.137Z,17.17
2022-12-04T23:54:28.481Z,16.13
2022-12-04T23:58:25.032Z,16.58
